SAAJ/JNI METAR and TAF weather

Enter ICAO airport designator
Station Type Date Time Source
SAAJ METAR 2022/07/26 20:15 UTC NOAA

SAAJ 262015Z 14008KT 7000 TS SCT035 FEW045CB BKN100 24/18 Q1013 RESHRA


Station Type Date Time Source
SAAJ Decoded METAR 2022/07/26 20:15 UTC NOAA

Junin Aerodrome, Argentina (SAAJ) 34-33S 060-55W 81M
Jul 26, 2022 - 04:15 PM EDT / 2022.07.26 2015 UTC
Wind: from the SE (140 degrees) at 9 MPH (8 KT):0
Visibility: 4 mile(s):0
Sky conditions: mostly cloudy
Weather: thunder; Cumulonimbus clouds observed
Temperature: 75 F (24 C)
Dew Point: 64 F (18 C)
Relative Humidity: 69%
Pressure (altimeter): 29.91 in. Hg (1013 hPa)
ob: SAAJ 262015Z 14008KT 7000 TS SCT035 FEW045CB BKN100 24/18 Q1013 RESHRA
cycle: 20

Station Type Date Time Source
SAAJ TAF UTC NOAA

Error!

Example: see airport list